Time;durP1;ratioP1;P1;durP2;ratioP2;P2;SDS_P1;SDS_P2;PMS_P1;PMS_P2;Temp;Humidity;BMP_temperature;BMP_pressure;BME280_temperature;BME280_humidity;BME280_pressure;Samples;Min_cycle;Max_cycle;Signal;HPM_P1;HPM_P2
2023/04/28 06:10:21;;;;;;;2.63;2.20;;;;;;;12.51;77.40;95480.59;5061573;23;20296;-83
2023/04/28 06:15:39;;;;;;;2.83;2.37;;;;;;;12.50;78.12;95468.66;5039251;23;20226;-87
2023/04/28 06:18:31;;;;;;;2.50;2.30;;;;;;;12.50;78.05;95471.25;5027203;28;20190;-87
2023/04/28 06:21:37;;;;;;;2.00;1.90;;;;;;;12.55;77.92;95467.06;5022505;28;20214;-88
2023/04/28 06:24:13;;;;;;;2.37;1.80;;;;;;;12.59;77.81;95465.72;5001717;28;20227;-86
2023/04/28 06:26:42;;;;;;;3.77;2.10;;;;;;;12.57;78.22;95459.16;5003470;28;20222;-87
2023/04/28 06:29:46;;;;;;;2.13;1.87;;;;;;;12.54;78.32;95469.84;5003409;28;20471;-88
2023/04/28 06:32:38;;;;;;;2.63;2.27;;;;;;;12.60;78.54;95462.16;5002402;28;20223;-87
2023/04/28 06:38:11;;;;;;;3.47;2.00;;;;;;;12.59;80.22;95463.13;4987540;28;20286;-87
2023/04/28 06:41:00;;;;;;;2.20;2.00;;;;;;;12.70;80.02;95457.41;4992910;28;20269;-87
2023/04/28 06:43:30;;;;;;;2.43;1.80;;;;;;;12.77;80.51;95450.50;4986823;28;20481;-88
2023/04/28 06:46:18;;;;;;;2.87;1.80;;;;;;;12.86;80.17;95438.22;5006247;28;20196;-88
2023/04/28 06:48:46;;;;;;;2.47;1.70;;;;;;;12.95;80.28;95442.19;5006186;28;20259;-88
2023/04/28 06:51:34;;;;;;;4.37;1.97;;;;;;;13.13;80.39;95441.66;5007850;28;20231;-88
2023/04/28 06:54:07;;;;;;;2.13;1.77;;;;;;;13.23;79.77;95441.31;5007096;28;20689;-88
2023/04/28 06:59:19;;;;;;;3.00;1.50;;;;;;;13.37;79.96;95430.78;5003835;28;20210;-88
2023/04/28 07:01:47;;;;;;;1.50;1.40;;;;;;;13.48;79.11;95426.81;5006248;28;20209;-88
2023/04/28 07:04:15;;;;;;;1.60;1.50;;;;;;;13.56;78.68;95423.25;5008288;28;20203;-87
2023/04/28 07:07:12;;;;;;;2.57;1.90;;;;;;;13.63;78.89;95430.03;5006274;28;20197;-89
2023/04/28 07:09:52;;;;;;;1.63;1.50;;;;;;;13.62;78.42;95425.84;4940515;28;20198;-88
2023/04/28 07:12:46;;;;;;;1.50;1.40;;;;;;;13.62;78.43;95425.06;4991176;28;20223;-89
2023/04/28 07:18:16;;;;;;;1.57;1.20;;;;;;;13.59;78.82;95430.63;5004363;28;20218;-87
2023/04/28 07:21:20;;;;;;;2.43;1.40;;;;;;;13.64;79.10;95425.66;5009086;28;20210;-89
2023/04/28 07:24:06;;;;;;;3.60;1.40;;;;;;;13.64;78.58;95421.28;5009030;28;20214;-87
2023/04/28 07:27:19;;;;;;;1.30;1.20;;;;;;;13.62;78.79;95425.84;5006698;28;20211;-88
2023/04/28 07:30:01;;;;;;;3.07;1.47;;;;;;;13.57;79.27;95417.06;4973776;28;20199;-88
2023/04/28 07:32:31;;;;;;;1.37;1.27;;;;;;;13.65;79.06;95427.25;5007960;28;20254;-88
2023/04/28 07:40:38;;;;;;;2.67;1.40;;;;;;;13.62;80.63;95419.88;5001959;28;20191;-88
2023/04/28 07:43:29;;;;;;;1.80;1.30;;;;;;;13.71;80.14;95427.22;5007959;28;20578;-89
2023/04/28 07:49:23;;;;;;;1.40;1.30;;;;;;;13.67;79.45;95435.56;5000264;28;20192;-88
2023/04/28 07:52:13;;;;;;;;;;;;;;;;;;;;;
2023/04/28 07:58:39;;;;;;;1.77;1.47;;;;;;;13.62;81.42;95445.75;5004528;28;20655;-87
2023/04/28 08:21:46;;;;;;;2.87;1.97;;;;;;;13.60;86.40;95435.59;4893517;29;20198;-88
2023/04/28 08:30:43;;;;;;;3.87;1.90;;;;;;;13.50;88.99;95424.81;4989414;28;20216;-88
2023/04/28 08:33:47;;;;;;;2.27;1.70;;;;;;;13.51;89.63;95418.66;4997027;28;20215;-88
2023/04/28 08:39:01;;;;;;;1.88;1.70;;;;;;;13.47;89.07;95414.88;4996015;28;20733;-87
2023/04/28 08:47:59;;;;;;;3.27;1.90;;;;;;;13.45;90.78;95399.59;4994669;28;20205;-88
2023/04/28 08:53:23;;;;;;;1.87;1.37;;;;;;;13.48;87.95;95398.34;4983568;28;20254;-88
2023/04/28 08:56:12;;;;;;;2.07;1.60;;;;;;;13.44;89.78;95400.56;4997277;28;20701;-88
2023/04/28 08:59:33;;;;;;;3.20;1.70;;;;;;;13.35;90.61;95399.16;4994474;28;20260;-88
2023/04/28 09:02:00;;;;;;;1.73;1.50;;;;;;;13.47;90.40;95401.94;4986857;28;20200;-89
2023/04/28 09:04:53;;;;;;;;;;;;;;;;;;;;;
2023/04/28 09:10:29;;;;;;;1.93;1.40;;;;;;;13.52;89.62;95398.75;4992343;28;20542;-88
2023/04/28 09:13:25;;;;;;;3.03;1.57;;;;;;;13.52;89.58;95396.19;4988996;28;20873;-87
2023/04/28 09:16:08;;;;;;;1.80;1.40;;;;;;;13.55;89.13;95395.78;4975961;28;20214;-89
2023/04/28 09:18:34;;;;;;;2.60;1.50;;;;;;;13.59;88.54;95405.53;4992548;28;20196;-88
2023/04/28 09:21:12;;;;;;;1.77;1.67;;;;;;;13.58;89.76;95395.41;4992652;28;20214;-89
2023/04/28 09:24:29;;;;;;;1.83;1.30;;;;;;;13.54;89.81;95389.03;4980343;28;20251;-86
2023/04/28 09:27:45;;;;;;;1.57;1.43;;;;;;;13.46;90.45;95384.84;4956501;28;20208;-88
2023/04/28 09:31:02;;;;;;;;;;;;;;;;;;;;;
2023/04/28 09:34:12;;;;;;;1.40;1.30;;;;;;;13.36;92.78;95394.78;4992407;28;20246;-89
2023/04/28 09:37:29;;;;;;;2.60;1.75;;;;;;;13.17;95.60;95391.19;4992793;28;20294;-89
2023/04/28 09:47:05;;;;;;;2.07;1.30;;;;;;;13.30;97.83;95372.28;4969184;28;20736;-86
2023/04/28 09:49:44;;;;;;;1.40;1.30;;;;;;;13.29;98.67;95376.66;4987622;28;20590;-86
2023/04/28 09:52:23;;;;;;;1.50;1.40;;;;;;;13.28;99.17;95371.69;4993378;28;20597;-86
2023/04/28 09:57:44;;;;;;;1.73;1.50;;;;;;;13.35;100.00;95372.50;4933213;29;20210;-87
2023/04/28 10:00:42;;;;;;;1.73;1.40;;;;;;;13.37;100.00;95378.28;4985944;28;20637;-87
2023/04/28 10:06:01;;;;;;;2.83;1.70;;;;;;;13.34;100.00;95378.66;4975742;28;20203;-87
2023/04/28 10:08:50;;;;;;;3.57;1.33;;;;;;;13.38;100.00;95380.66;4995278;28;20238;-86
2023/04/28 10:11:24;;;;;;;1.63;1.20;;;;;;;13.38;100.00;95383.25;4988437;28;20203;-87
2023/04/28 10:14:07;;;;;;;1.45;1.20;;;;;;;13.25;100.00;95372.13;4979938;28;20755;-86
2023/04/28 10:16:37;;;;;;;1.60;1.20;;;;;;;13.23;100.00;95372.31;4995390;28;20262;-86
2023/04/28 10:19:05;;;;;;;2.20;1.40;;;;;;;13.18;100.00;95373.88;4994697;28;20215;-86
2023/04/28 10:21:53;;;;;;;1.57;1.10;;;;;;;13.26;100.00;95368.53;4995545;28;20509;-85
2023/04/28 10:24:42;;;;;;;3.37;1.20;;;;;;;13.19;100.00;95365.13;4993946;28;20213;-86
2023/04/28 10:27:10;;;;;;;3.27;1.20;;;;;;;13.14;100.00;95366.50;4978359;28;20283;-85
2023/04/28 10:29:52;;;;;;;;;;;;;;;;;;;;;
2023/04/28 10:35:53;;;;;;;1.10;0.80;;;;;;;13.14;100.00;95357.94;4995843;28;20204;-87
2023/04/28 10:38:21;;;;;;;1.07;1.00;;;;;;;13.20;100.00;95362.38;4993990;28;20320;-86
2023/04/28 10:40:49;;;;;;;1.57;1.10;;;;;;;13.19;100.00;95354.81;4988326;28;20254;-85
2023/04/28 10:43:41;;;;;;;1.60;1.50;;;;;;;13.30;100.00;95367.13;4990361;28;20241;-86
2023/04/28 10:46:11;;;;;;;1.83;1.50;;;;;;;13.29;100.00;95366.31;4988806;28;20196;-86
2023/04/28 10:49:38;;;;;;;1.30;1.20;;;;;;;13.28;100.00;95354.38;4992261;28;20238;-87
2023/04/28 11:02:45;;;;;;;1.27;1.00;;;;;;;13.28;100.00;95372.50;4966393;28;20987;-88
2023/04/28 11:05:33;;;;;;;2.23;1.10;;;;;;;13.31;100.00;95360.97;4971473;28;20275;-86
2023/04/28 11:08:35;;;;;;;3.57;1.30;;;;;;;13.29;100.00;95355.97;4996127;28;20196;-87
2023/04/28 11:11:24;;;;;;;1.00;0.90;;;;;;;13.18;100.00;95350.63;4996048;28;20290;-87
2023/04/28 17:51:20;;;;;;;2.95;2.60;;;;;;;14.86;100.00;95263.28;4806660;26;20225;-86
2023/04/28 17:54:38;;;;;;;;;;;;;;;;;;;;;
2023/04/28 18:03:21;;;;;;;1.77;1.60;;;;;;;14.84;100.00;95278.22;5019474;28;20762;-86
2023/04/28 18:06:04;;;;;;;1.85;1.42;;;;;;;14.82;100.00;95280.25;5044972;28;20197;-86
2023/04/28 18:09:05;;;;;;;2.25;2.05;;;;;;;14.74;100.00;95287.50;5052192;28;20655;-86
2023/04/28 18:11:42;;;;;;;1.30;1.20;;;;;;;14.69;100.00;95293.28;5049784;28;20198;-86
2023/04/28 18:14:47;;;;;;;;;;;;;;;;;;;;;
2023/04/28 18:17:35;;;;;;;2.67;1.80;;;;;;;14.71;100.00;95303.44;5052260;28;20208;-86
2023/04/28 18:20:31;;;;;;;2.75;1.83;;;;;;;14.70;100.00;95315.63;5031188;28;20205;-87
2023/04/28 18:23:29;;;;;;;2.05;1.85;;;;;;;14.70;100.00;95323.38;5051873;28;20253;-86
2023/04/28 18:26:28;;;;;;;2.63;1.70;;;;;;;14.68;100.00;95319.41;5030862;28;20656;-86
2023/04/28 18:46:03;;;;;;;4.28;2.83;;;;;;;14.58;100.00;95407.19;4879951;29;20502;-85
2023/04/28 18:54:58;;;;;;;;;;;;;;;;;;;;;
2023/04/28 18:57:48;;;;;;;1.90;1.70;;;;;;;13.82;100.00;95374.88;5049174;28;20198;-85
2023/04/28 19:00:17;;;;;;;2.80;2.00;;;;;;;13.74;100.00;95376.88;5042221;28;20275;-85
2023/04/28 19:02:52;;;;;;;3.23;2.00;;;;;;;13.79;100.00;95408.91;5054042;28;20300;-85
2023/04/28 19:08:27;;;;;;;2.42;2.00;;;;;;;13.94;100.00;95444.94;5044145;28;20702;-85
2023/04/28 19:11:05;;;;;;;2.58;1.55;;;;;;;13.95;100.00;95436.16;5032944;28;20196;-85
2023/04/28 19:16:41;;;;;;;3.13;1.50;;;;;;;13.84;100.00;95436.78;5053826;28;20239;-86
2023/04/28 19:19:22;;;;;;;2.25;1.50;;;;;;;13.82;100.00;95438.78;5048042;28;20186;-87
2023/04/28 19:22:34;;;;;;;1.70;1.40;;;;;;;13.88;100.00;95424.22;5036018;28;20198;-86
2023/04/28 19:31:26;;;;;;;2.20;2.00;;;;;;;14.00;100.00;95441.56;5051829;28;20201;-86
2023/04/28 19:36:37;;;;;;;3.20;2.37;;;;;;;13.98;100.00;95463.44;5040827;28;20232;-86
2023/04/28 19:39:36;;;;;;;;;;;;;;;;;;;;;
2023/04/28 19:52:09;;;;;;;2.10;1.70;;;;;;;14.02;100.00;95451.72;4999516;28;20694;-85
2023/04/28 19:54:54;;;;;;;3.17;2.20;;;;;;;13.95;100.00;95449.13;5042230;28;20249;-85
2023/04/28 19:57:57;;;;;;;3.38;2.20;;;;;;;13.94;100.00;95437.16;5045134;28;20202;-85
2023/04/28 20:00:35;;;;;;;2.92;1.90;;;;;;;13.94;100.00;95446.72;5036018;28;20231;-86
2023/04/28 20:06:29;;;;;;;2.25;1.70;;;;;;;13.90;100.00;95430.78;5040277;28;20196;-85
2023/04/28 20:11:49;;;;;;;2.07;1.83;;;;;;;13.86;100.00;95426.22;4994162;28;20315;-85
2023/04/28 20:14:38;;;;;;;1.90;1.80;;;;;;;13.83;100.00;95425.63;5047906;28;20299;-85
2023/04/28 20:20:00;;;;;;;2.22;1.90;;;;;;;13.79;100.00;95416.69;5035683;28;20206;-86
2023/04/28 20:22:39;;;;;;;1.95;1.75;;;;;;;13.80;100.00;95407.91;5035268;28;20261;-86
2023/04/28 20:25:17;;;;;;;2.97;2.10;;;;;;;13.80;100.00;95410.50;5034829;28;20206;-86
2023/04/28 20:34:16;;;;;;;3.43;2.13;;;;;;;13.77;100.00;95412.69;5053599;28;20225;-86
2023/04/28 20:37:02;;;;;;;2.27;2.03;;;;;;;13.75;100.00;95404.34;5037157;28;20209;-86
2023/04/28 20:42:32;;;;;;;2.42;2.00;;;;;;;13.67;100.00;95401.94;5033752;28;20198;-86
2023/04/28 20:45:45;;;;;;;2.03;1.83;;;;;;;13.61;100.00;95398.38;5036654;28;20636;-86
2023/04/28 20:48:18;;;;;;;1.83;1.70;;;;;;;13.54;100.00;95395.00;5035283;28;20272;-85
2023/04/28 20:51:24;;;;;;;3.38;2.10;;;;;;;13.56;100.00;95392.19;5040457;28;20265;-86
2023/04/28 20:54:32;;;;;;;;;;;;;;;;;;;;;
2023/04/28 20:57:39;;;;;;;3.50;3.20;;;;;;;13.48;100.00;95395.78;5035798;28;20209;-88
2023/04/28 21:07:05;;;;;;;2.63;1.57;;;;;;;13.33;100.00;95410.69;5051860;28;20189;-87
2023/04/28 21:10:17;;;;;;;2.03;1.70;;;;;;;13.35;100.00;95413.88;5038524;28;20200;-89
2023/04/28 21:13:41;;;;;;;2.47;2.27;;;;;;;13.33;100.00;95406.31;5049453;28;20217;-88
2023/04/28 21:19:41;;;;;;;1.53;1.43;;;;;;;13.32;100.00;95411.69;5052366;28;20197;-88
2023/04/28 21:22:21;;;;;;;1.60;1.30;;;;;;;13.28;100.00;95416.44;5039449;28;20198;-87
2023/04/28 21:25:17;;;;;;;1.33;1.23;;;;;;;13.27;100.00;95414.88;5036834;28;20235;-87
2023/04/28 21:28:28;;;;;;;1.40;1.30;;;;;;;13.31;100.00;95410.88;5042044;28;20201;-88
2023/04/28 21:36:31;;;;;;;9.33;6.67;;;;;;;13.28;100.00;95398.34;5036999;28;20583;-86
2023/04/28 21:44:33;;;;;;;1.30;1.20;;;;;;;13.18;100.00;95394.56;5037221;28;20734;-86
2023/04/28 21:47:12;;;;;;;2.70;1.10;;;;;;;13.07;100.00;95401.09;5061769;28;20198;-87
2023/04/28 21:49:47;;;;;;;0.80;0.80;;;;;;;12.99;100.00;95391.72;5037784;28;20205;-87
2023/04/28 21:52:21;;;;;;;1.20;1.10;;;;;;;12.98;100.00;95405.63;5038640;28;20648;-86
2023/04/28 21:54:49;;;;;;;1.50;1.40;;;;;;;13.05;100.00;95406.47;5039410;28;20253;-88
2023/04/28 21:57:18;;;;;;;2.00;1.80;;;;;;;13.10;100.00;95409.22;5056364;28;20257;-86
2023/04/28 21:59:47;;;;;;;0.80;0.80;;;;;;;13.09;100.00;95409.41;5057701;28;20225;-87
2023/04/28 22:04:54;;;;;;;0.83;0.80;;;;;;;13.10;100.00;95411.03;5035404;28;20202;-88
2023/04/28 22:07:24;;;;;;;0.73;0.70;;;;;;;13.13;100.00;95416.59;5038131;28;20194;-87
2023/04/28 22:10:11;;;;;;;1.33;1.17;;;;;;;13.21;100.00;95420.03;5036460;28;20192;-86
2023/04/28 22:12:40;;;;;;;1.23;0.80;;;;;;;13.21;100.00;95420.84;5035599;28;20244;-87
2023/04/28 22:15:10;;;;;;;0.80;0.80;;;;;;;13.18;100.00;95416.03;5034570;28;20229;-87
2023/04/28 22:17:49;;;;;;;1.00;0.90;;;;;;;13.25;100.00;95403.13;5042121;28;20189;-86
2023/04/28 22:20:20;;;;;;;1.47;0.77;;;;;;;13.23;100.00;95408.50;5054943;28;20205;-86
2023/04/28 22:22:48;;;;;;;1.00;0.90;;;;;;;13.14;100.00;95402.69;5046687;28;20892;-86
2023/04/28 22:25:21;;;;;;;0.90;0.90;;;;;;;13.17;100.00;95396.34;5054023;28;20234;-87
2023/04/28 22:27:50;;;;;;;0.67;0.67;;;;;;;13.14;100.00;95400.09;5047614;28;20197;-87
2023/04/28 22:30:24;;;;;;;2.40;1.97;;;;;;;13.13;100.00;95390.75;5051386;28;20284;-87
2023/04/28 22:32:53;;;;;;;1.20;0.87;;;;;;;13.04;100.00;95391.94;5051064;28;20275;-87
2023/04/28 22:35:49;;;;;;;1.23;1.00;;;;;;;13.05;100.00;95380.63;5050890;28;20220;-86
2023/04/28 22:38:23;;;;;;;0.80;0.80;;;;;;;13.09;100.00;95383.56;4993033;28;20328;-86
2023/04/28 22:40:57;;;;;;;0.70;0.70;;;;;;;13.14;100.00;95376.03;5041871;28;20247;-86
2023/04/28 22:43:28;;;;;;;0.97;0.70;;;;;;;13.12;100.00;95380.59;5054531;28;20314;-86
2023/04/28 22:46:14;;;;;;;0.80;0.70;;;;;;;13.07;100.00;95375.25;5048700;28;20220;-86
2023/04/28 22:48:54;;;;;;;0.80;0.80;;;;;;;13.11;100.00;95366.09;5035446;28;20301;-86
2023/04/28 22:51:26;;;;;;;1.13;0.80;;;;;;;13.04;100.00;95378.22;5054235;28;20198;-86
2023/04/28 22:54:02;;;;;;;0.70;0.70;;;;;;;12.94;100.00;95368.25;5055258;28;20217;-87
2023/04/28 22:59:22;;;;;;;0.90;0.87;;;;;;;13.01;100.00;95357.94;5034140;28;20198;-86
2023/04/28 23:01:56;;;;;;;0.73;0.73;;;;;;;13.00;100.00;95346.81;5051560;28;20732;-87
2023/04/28 23:04:35;;;;;;;0.70;0.70;;;;;;;12.94;100.00;95352.75;5042890;28;20225;-87
2023/04/28 23:07:28;;;;;;;;;;;;;;;;;;;;;
2023/04/28 23:10:13;;;;;;;0.90;0.90;;;;;;;12.91;100.00;95342.78;5034077;28;20566;-86
2023/04/28 23:15:50;;;;;;;0.63;0.63;;;;;;;13.01;100.00;95350.19;5052622;28;20217;-86
2023/04/28 23:18:21;;;;;;;1.00;0.70;;;;;;;13.03;100.00;95341.25;5053674;28;20194;-86
2023/04/28 23:20:48;;;;;;;1.13;0.90;;;;;;;12.94;100.00;95339.81;5053664;28;20240;-86
2023/04/28 23:23:15;;;;;;;0.70;0.70;;;;;;;12.94;100.00;95342.41;5041171;28;20805;-86
2023/04/28 23:25:42;;;;;;;0.80;0.70;;;;;;;13.03;100.00;95343.03;5035106;28;20199;-87
2023/04/28 23:28:10;;;;;;;0.80;0.80;;;;;;;13.03;100.00;95343.81;5037555;28;20221;-86
2023/04/28 23:30:36;;;;;;;1.03;0.80;;;;;;;13.00;100.00;95353.75;5050341;28;20197;-87
2023/04/28 23:33:03;;;;;;;0.93;0.83;;;;;;;12.95;100.00;95353.53;5042563;28;20234;-87
2023/04/28 23:35:29;;;;;;;0.87;0.83;;;;;;;12.96;100.00;95343.00;5034226;28;20225;-86
2023/04/28 23:37:58;;;;;;;1.27;0.80;;;;;;;12.94;100.00;95344.19;5044486;28;20201;-86
2023/04/28 23:40:26;;;;;;;0.90;0.80;;;;;;;12.86;100.00;95340.03;5051904;28;20201;-86
2023/04/28 23:42:55;;;;;;;1.80;0.60;;;;;;;12.87;100.00;95333.88;5043723;28;20631;-86
2023/04/28 23:45:24;;;;;;;0.80;0.80;;;;;;;12.86;100.00;95334.88;5032320;28;20206;-87
2023/04/28 23:47:55;;;;;;;0.83;0.83;;;;;;;12.86;100.00;95326.31;5042602;28;20205;-86
2023/04/28 23:50:28;;;;;;;1.33;0.60;;;;;;;12.85;100.00;95317.75;5051827;28;20198;-87
2023/04/28 23:52:56;;;;;;;1.10;0.60;;;;;;;12.75;100.00;95317.34;5052839;28;20217;-86
2023/04/28 23:55:26;;;;;;;0.70;0.70;;;;;;;12.72;100.00;95315.13;5046401;28;20217;-87
2023/04/28 23:57:54;;;;;;;0.60;0.60;;;;;;;12.74;100.00;95313.94;5044826;28;20208;-86
